sensor_id;sensor_type;location;lat;lon;timestamp;P1;durP1;ratioP1;P2;durP2;ratioP2
82398;SDS011;72035;52.482;-1.914;2023-08-12T00:01:16;11;;;8;;
82398;SDS011;72035;52.482;-1.914;2023-08-12T00:03:46;12;;;11;;
82398;SDS011;72035;52.482;-1.914;2023-08-12T00:06:17;12;;;12;;
82398;SDS011;72035;52.482;-1.914;2023-08-12T00:08:47;12;;;12;;
82398;SDS011;72035;52.482;-1.914;2023-08-12T00:11:16;10;;;10;;
82398;SDS011;72035;52.482;-1.914;2023-08-12T00:13:46;8;;;6;;
82398;SDS011;72035;52.482;-1.914;2023-08-12T00:16:16;8;;;6;;
82398;SDS011;72035;52.482;-1.914;2023-08-12T00:18:47;13;;;11;;
82398;SDS011;72035;52.482;-1.914;2023-08-12T00:21:15;8;;;8;;
82398;SDS011;72035;52.482;-1.914;2023-08-12T00:23:45;8;;;8;;
82398;SDS011;72035;52.482;-1.914;2023-08-12T00:26:15;14;;;12;;
82398;SDS011;72035;52.482;-1.914;2023-08-12T00:28:48;14;;;14;;
82398;SDS011;72035;52.482;-1.914;2023-08-12T00:31:17;14;;;14;;
82398;SDS011;72035;52.482;-1.914;2023-08-12T00:33:46;10;;;7;;
82398;SDS011;72035;52.482;-1.914;2023-08-12T00:36:15;9;;;7;;
82398;SDS011;72035;52.482;-1.914;2023-08-12T00:38:44;8;;;7;;
82398;SDS011;72035;52.482;-1.914;2023-08-12T00:41:15;10;;;9;;
82398;SDS011;72035;52.482;-1.914;2023-08-12T00:43:45;14;;;10;;
82398;SDS011;72035;52.482;-1.914;2023-08-12T00:46:16;10;;;9;;
82398;SDS011;72035;52.482;-1.914;2023-08-12T00:48:46;10;;;9;;
82398;SDS011;72035;52.482;-1.914;2023-08-12T00:51:15;7;;;7;;
82398;SDS011;72035;52.482;-1.914;2023-08-12T00:53:44;11;;;8;;
82398;SDS011;72035;52.482;-1.914;2023-08-12T00:56:17;11;;;8;;
82398;SDS011;72035;52.482;-1.914;2023-08-12T00:58:48;9;;;6;;
82398;SDS011;72035;52.482;-1.914;2023-08-12T01:01:17;9;;;6;;
82398;SDS011;72035;52.482;-1.914;2023-08-12T01:03:47;13;;;8;;
82398;SDS011;72035;52.482;-1.914;2023-08-12T01:06:17;13;;;8;;
82398;SDS011;72035;52.482;-1.914;2023-08-12T01:08:48;8;;;5;;
82398;SDS011;72035;52.482;-1.914;2023-08-12T01:11:23;7;;;7;;
82398;SDS011;72035;52.482;-1.914;2023-08-12T01:13:58;7;;;7;;
82398;SDS011;72035;52.482;-1.914;2023-08-12T01:16:30;6;;;5;;
82398;SDS011;72035;52.482;-1.914;2023-08-12T01:19:02;6;;;4;;
82398;SDS011;72035;52.482;-1.914;2023-08-12T01:21:36;16;;;13;;
82398;SDS011;72035;52.482;-1.914;2023-08-12T01:24:09;16;;;13;;
82398;SDS011;72035;52.482;-1.914;2023-08-12T01:26:38;7;;;6;;
82398;SDS011;72035;52.482;-1.914;2023-08-12T01:29:07;15;;;11;;
82398;SDS011;72035;52.482;-1.914;2023-08-12T01:31:38;15;;;10;;
82398;SDS011;72035;52.482;-1.914;2023-08-12T01:34:12;10;;;10;;
82398;SDS011;72035;52.482;-1.914;2023-08-12T01:36:46;10;;;10;;
82398;SDS011;72035;52.482;-1.914;2023-08-12T01:39:20;9;;;7;;
82398;SDS011;72035;52.482;-1.914;2023-08-12T01:41:49;10;;;7;;
82398;SDS011;72035;52.482;-1.914;2023-08-12T01:44:18;12;;;10;;
82398;SDS011;72035;52.482;-1.914;2023-08-12T01:46:48;10;;;10;;
82398;SDS011;72035;52.482;-1.914;2023-08-12T01:49:20;10;;;10;;
82398;SDS011;72035;52.482;-1.914;2023-08-12T01:51:51;10;;;10;;
82398;SDS011;72035;52.482;-1.914;2023-08-12T01:54:20;10;;;10;;
82398;SDS011;72035;52.482;-1.914;2023-08-12T01:56:48;11;;;11;;
82398;SDS011;72035;52.482;-1.914;2023-08-12T01:59:18;11;;;11;;
82398;SDS011;72035;52.482;-1.914;2023-08-12T02:01:48;12;;;11;;
82398;SDS011;72035;52.482;-1.914;2023-08-12T02:04:20;13;;;9;;
82398;SDS011;72035;52.482;-1.914;2023-08-12T02:06:53;13;;;9;;
82398;SDS011;72035;52.482;-1.914;2023-08-12T02:09:22;9;;;9;;
82398;SDS011;72035;52.482;-1.914;2023-08-12T02:11:54;9;;;9;;
82398;SDS011;72035;52.482;-1.914;2023-08-12T02:14:24;10;;;10;;
82398;SDS011;72035;52.482;-1.914;2023-08-12T02:16:56;10;;;10;;
82398;SDS011;72035;52.482;-1.914;2023-08-12T02:19:27;14;;;13;;
82398;SDS011;72035;52.482;-1.914;2023-08-12T02:21:55;13;;;11;;
82398;SDS011;72035;52.482;-1.914;2023-08-12T02:24:24;13;;;11;;
82398;SDS011;72035;52.482;-1.914;2023-08-12T02:26:53;12;;;11;;
82398;SDS011;72035;52.482;-1.914;2023-08-12T02:29:24;11;;;10;;
82398;SDS011;72035;52.482;-1.914;2023-08-12T02:31:57;14;;;10;;
82398;SDS011;72035;52.482;-1.914;2023-08-12T02:34:25;13;;;12;;
82398;SDS011;72035;52.482;-1.914;2023-08-12T02:36:54;12;;;12;;
82398;SDS011;72035;52.482;-1.914;2023-08-12T02:39:23;15;;;13;;
82398;SDS011;72035;52.482;-1.914;2023-08-12T02:41:54;16;;;13;;
82398;SDS011;72035;52.482;-1.914;2023-08-12T02:44:25;15;;;12;;
82398;SDS011;72035;52.482;-1.914;2023-08-12T02:46:56;12;;;10;;
82398;SDS011;72035;52.482;-1.914;2023-08-12T02:49:25;12;;;10;;
82398;SDS011;72035;52.482;-1.914;2023-08-12T02:51:54;13;;;11;;
82398;SDS011;72035;52.482;-1.914;2023-08-12T02:54:22;11;;;8;;
82398;SDS011;72035;52.482;-1.914;2023-08-12T02:56:53;11;;;8;;
82398;SDS011;72035;52.482;-1.914;2023-08-12T02:59:23;11;;;8;;
82398;SDS011;72035;52.482;-1.914;2023-08-12T03:01:55;12;;;10;;
82398;SDS011;72035;52.482;-1.914;2023-08-12T03:04:26;9;;;9;;
82398;SDS011;72035;52.482;-1.914;2023-08-12T03:06:56;11;;;9;;
82398;SDS011;72035;52.482;-1.914;2023-08-12T03:09:28;10;;;7;;
82398;SDS011;72035;52.482;-1.914;2023-08-12T03:12:01;9;;;7;;
82398;SDS011;72035;52.482;-1.914;2023-08-12T03:14:31;11;;;8;;
82398;SDS011;72035;52.482;-1.914;2023-08-12T03:17:00;11;;;8;;
82398;SDS011;72035;52.482;-1.914;2023-08-12T03:19:30;15;;;15;;
82398;SDS011;72035;52.482;-1.914;2023-08-12T03:22:02;10;;;8;;
82398;SDS011;72035;52.482;-1.914;2023-08-12T03:24:35;9;;;9;;
82398;SDS011;72035;52.482;-1.914;2023-08-12T03:27:04;14;;;11;;
82398;SDS011;72035;52.482;-1.914;2023-08-12T03:29:34;12;;;10;;
82398;SDS011;72035;52.482;-1.914;2023-08-12T03:32:03;12;;;10;;
82398;SDS011;72035;52.482;-1.914;2023-08-12T03:34:32;11;;;7;;
82398;SDS011;72035;52.482;-1.914;2023-08-12T03:37:02;11;;;8;;
82398;SDS011;72035;52.482;-1.914;2023-08-12T03:39:35;15;;;12;;
82398;SDS011;72035;52.482;-1.914;2023-08-12T03:42:04;11;;;10;;
82398;SDS011;72035;52.482;-1.914;2023-08-12T03:44:33;7;;;7;;
82398;SDS011;72035;52.482;-1.914;2023-08-12T03:47:03;17;;;15;;
82398;SDS011;72035;52.482;-1.914;2023-08-12T03:49:32;16;;;15;;
82398;SDS011;72035;52.482;-1.914;2023-08-12T03:52:03;8;;;8;;
82398;SDS011;72035;52.482;-1.914;2023-08-12T03:54:33;8;;;8;;
82398;SDS011;72035;52.482;-1.914;2023-08-12T03:57:02;10;;;10;;
82398;SDS011;72035;52.482;-1.914;2023-08-12T03:59:32;13;;;10;;
82398;SDS011;72035;52.482;-1.914;2023-08-12T04:02:02;14;;;9;;
82398;SDS011;72035;52.482;-1.914;2023-08-12T04:04:34;19;;;15;;
82398;SDS011;72035;52.482;-1.914;2023-08-12T04:07:03;8;;;8;;
82398;SDS011;72035;52.482;-1.914;2023-08-12T04:09:32;8;;;8;;
82398;SDS011;72035;52.482;-1.914;2023-08-12T04:12:01;12;;;11;;
82398;SDS011;72035;52.482;-1.914;2023-08-12T04:14:31;11;;;8;;
82398;SDS011;72035;52.482;-1.914;2023-08-12T04:17:02;14;;;10;;
82398;SDS011;72035;52.482;-1.914;2023-08-12T04:19:30;8;;;7;;
82398;SDS011;72035;52.482;-1.914;2023-08-12T04:22:00;6;;;6;;
82398;SDS011;72035;52.482;-1.914;2023-08-12T04:24:29;10;;;10;;
82398;SDS011;72035;52.482;-1.914;2023-08-12T04:26:58;10;;;8;;
82398;SDS011;72035;52.482;-1.914;2023-08-12T04:29:29;11;;;9;;
82398;SDS011;72035;52.482;-1.914;2023-08-12T04:31:59;9;;;9;;
82398;SDS011;72035;52.482;-1.914;2023-08-12T04:34:29;9;;;9;;
82398;SDS011;72035;52.482;-1.914;2023-08-12T04:36:58;17;;;10;;
82398;SDS011;72035;52.482;-1.914;2023-08-12T04:39:27;13;;;10;;
82398;SDS011;72035;52.482;-1.914;2023-08-12T04:41:57;20;;;12;;
82398;SDS011;72035;52.482;-1.914;2023-08-12T04:44:28;13;;;10;;
82398;SDS011;72035;52.482;-1.914;2023-08-12T04:47:01;13;;;10;;
82398;SDS011;72035;52.482;-1.914;2023-08-12T04:49:31;11;;;8;;
82398;SDS011;72035;52.482;-1.914;2023-08-12T04:52:01;11;;;11;;
82398;SDS011;72035;52.482;-1.914;2023-08-12T04:54:33;18;;;13;;
82398;SDS011;72035;52.482;-1.914;2023-08-12T04:57:04;15;;;12;;
82398;SDS011;72035;52.482;-1.914;2023-08-12T04:59:33;12;;;12;;
82398;SDS011;72035;52.482;-1.914;2023-08-12T05:02:02;9;;;9;;
82398;SDS011;72035;52.482;-1.914;2023-08-12T05:04:31;9;;;8;;
82398;SDS011;72035;52.482;-1.914;2023-08-12T05:07:02;15;;;15;;
82398;SDS011;72035;52.482;-1.914;2023-08-12T05:09:32;12;;;9;;
82398;SDS011;72035;52.482;-1.914;2023-08-12T05:12:02;12;;;9;;
82398;SDS011;72035;52.482;-1.914;2023-08-12T05:14:31;6;;;6;;
82398;SDS011;72035;52.482;-1.914;2023-08-12T05:17:00;8;;;8;;
82398;SDS011;72035;52.482;-1.914;2023-08-12T05:19:30;9;;;8;;
82398;SDS011;72035;52.482;-1.914;2023-08-12T05:22:00;9;;;8;;
82398;SDS011;72035;52.482;-1.914;2023-08-12T05:24:31;9;;;8;;
82398;SDS011;72035;52.482;-1.914;2023-08-12T05:27:01;10;;;10;;
82398;SDS011;72035;52.482;-1.914;2023-08-12T05:29:30;10;;;7;;
82398;SDS011;72035;52.482;-1.914;2023-08-12T05:32:00;11;;;7;;
82398;SDS011;72035;52.482;-1.914;2023-08-12T05:34:30;8;;;6;;
82398;SDS011;72035;52.482;-1.914;2023-08-12T05:37:02;9;;;7;;
82398;SDS011;72035;52.482;-1.914;2023-08-12T05:39:32;9;;;8;;
82398;SDS011;72035;52.482;-1.914;2023-08-12T05:42:02;18;;;14;;
82398;SDS011;72035;52.482;-1.914;2023-08-12T05:44:34;8;;;6;;
82398;SDS011;72035;52.482;-1.914;2023-08-12T05:47:05;5;;;5;;
82398;SDS011;72035;52.482;-1.914;2023-08-12T05:49:34;6;;;6;;
82398;SDS011;72035;52.482;-1.914;2023-08-12T05:52:03;8;;;8;;
82398;SDS011;72035;52.482;-1.914;2023-08-12T05:54:32;8;;;8;;
82398;SDS011;72035;52.482;-1.914;2023-08-12T05:57:03;11;;;8;;
82398;SDS011;72035;52.482;-1.914;2023-08-12T05:59:32;7;;;7;;
82398;SDS011;72035;52.482;-1.914;2023-08-12T06:02:02;7;;;7;;
82398;SDS011;72035;52.482;-1.914;2023-08-12T06:04:31;11;;;10;;
82398;SDS011;72035;52.482;-1.914;2023-08-12T06:06:59;15;;;11;;
82398;SDS011;72035;52.482;-1.914;2023-08-12T06:09:29;11;;;8;;
82398;SDS011;72035;52.482;-1.914;2023-08-12T06:12:00;16;;;11;;
82398;SDS011;72035;52.482;-1.914;2023-08-12T06:14:31;16;;;12;;
82398;SDS011;72035;52.482;-1.914;2023-08-12T06:17:00;16;;;15;;
82398;SDS011;72035;52.482;-1.914;2023-08-12T06:19:29;8;;;5;;
82398;SDS011;72035;52.482;-1.914;2023-08-12T06:21:59;9;;;7;;
82398;SDS011;72035;52.482;-1.914;2023-08-12T06:24:32;10;;;8;;
82398;SDS011;72035;52.482;-1.914;2023-08-12T06:27:01;9;;;8;;
82398;SDS011;72035;52.482;-1.914;2023-08-12T06:29:30;9;;;9;;
82398;SDS011;72035;52.482;-1.914;2023-08-12T06:32:00;11;;;11;;
82398;SDS011;72035;52.482;-1.914;2023-08-12T06:34:33;10;;;9;;
82398;SDS011;72035;52.482;-1.914;2023-08-12T06:37:02;9;;;9;;
82398;SDS011;72035;52.482;-1.914;2023-08-12T06:39:31;9;;;9;;
82398;SDS011;72035;52.482;-1.914;2023-08-12T06:42:00;9;;;8;;
82398;SDS011;72035;52.482;-1.914;2023-08-12T06:44:30;13;;;11;;
82398;SDS011;72035;52.482;-1.914;2023-08-12T06:47:00;9;;;6;;
82398;SDS011;72035;52.482;-1.914;2023-08-12T06:49:31;10;;;8;;
82398;SDS011;72035;52.482;-1.914;2023-08-12T06:52:02;10;;;8;;
82398;SDS011;72035;52.482;-1.914;2023-08-12T06:54:30;12;;;8;;
82398;SDS011;72035;52.482;-1.914;2023-08-12T06:56:59;10;;;7;;
82398;SDS011;72035;52.482;-1.914;2023-08-12T06:59:29;15;;;9;;
82398;SDS011;72035;52.482;-1.914;2023-08-12T07:02:00;8;;;8;;
82398;SDS011;72035;52.482;-1.914;2023-08-12T07:04:31;8;;;7;;
82398;SDS011;72035;52.482;-1.914;2023-08-12T07:07:01;13;;;12;;
82398;SDS011;72035;52.482;-1.914;2023-08-12T07:09:30;10;;;8;;
82398;SDS011;72035;52.482;-1.914;2023-08-12T07:12:01;16;;;10;;
82398;SDS011;72035;52.482;-1.914;2023-08-12T07:14:33;9;;;7;;
82398;SDS011;72035;52.482;-1.914;2023-08-12T07:17:06;9;;;7;;
82398;SDS011;72035;52.482;-1.914;2023-08-12T07:19:36;13;;;7;;
82398;SDS011;72035;52.482;-1.914;2023-08-12T07:22:06;17;;;10;;
82398;SDS011;72035;52.482;-1.914;2023-08-12T07:24:39;11;;;5;;
82398;SDS011;72035;52.482;-1.914;2023-08-12T07:27:08;12;;;9;;
82398;SDS011;72035;52.482;-1.914;2023-08-12T07:29:37;13;;;10;;
82398;SDS011;72035;52.482;-1.914;2023-08-12T07:32:06;10;;;7;;
82398;SDS011;72035;52.482;-1.914;2023-08-12T07:34:36;11;;;10;;
82398;SDS011;72035;52.482;-1.914;2023-08-12T07:37:06;14;;;8;;
82398;SDS011;72035;52.482;-1.914;2023-08-12T07:39:37;12;;;8;;
82398;SDS011;72035;52.482;-1.914;2023-08-12T07:42:08;12;;;10;;
82398;SDS011;72035;52.482;-1.914;2023-08-12T07:44:37;8;;;6;;
82398;SDS011;72035;52.482;-1.914;2023-08-12T07:47:06;12;;;6;;
82398;SDS011;72035;52.482;-1.914;2023-08-12T07:49:36;11;;;10;;
82398;SDS011;72035;52.482;-1.914;2023-08-12T07:52:07;11;;;11;;
82398;SDS011;72035;52.482;-1.914;2023-08-12T07:54:36;7;;;6;;
82398;SDS011;72035;52.482;-1.914;2023-08-12T07:57:05;8;;;6;;
82398;SDS011;72035;52.482;-1.914;2023-08-12T07:59:35;20;;;14;;
82398;SDS011;72035;52.482;-1.914;2023-08-12T08:02:04;10;;;7;;
82398;SDS011;72035;52.482;-1.914;2023-08-12T08:04:33;7;;;6;;
82398;SDS011;72035;52.482;-1.914;2023-08-12T08:07:03;8;;;5;;
82398;SDS011;72035;52.482;-1.914;2023-08-12T08:09:33;13;;;5;;
82398;SDS011;72035;52.482;-1.914;2023-08-12T08:12:03;11;;;5;;
82398;SDS011;72035;52.482;-1.914;2023-08-12T08:14:35;8;;;6;;
82398;SDS011;72035;52.482;-1.914;2023-08-12T08:17:04;13;;;11;;
82398;SDS011;72035;52.482;-1.914;2023-08-12T08:19:33;11;;;8;;
82398;SDS011;72035;52.482;-1.914;2023-08-12T08:22:02;8;;;3;;
82398;SDS011;72035;52.482;-1.914;2023-08-12T08:24:32;7;;;5;;
82398;SDS011;72035;52.482;-1.914;2023-08-12T08:27:03;9;;;6;;
82398;SDS011;72035;52.482;-1.914;2023-08-12T08:29:35;8;;;8;;
82398;SDS011;72035;52.482;-1.914;2023-08-12T08:32:04;9;;;8;;
82398;SDS011;72035;52.482;-1.914;2023-08-12T08:34:32;8;;;7;;
82398;SDS011;72035;52.482;-1.914;2023-08-12T08:37:02;12;;;9;;
82398;SDS011;72035;52.482;-1.914;2023-08-12T08:39:33;11;;;6;;
82398;SDS011;72035;52.482;-1.914;2023-08-12T08:42:02;6;;;6;;
82398;SDS011;72035;52.482;-1.914;2023-08-12T08:44:34;8;;;5;;
82398;SDS011;72035;52.482;-1.914;2023-08-12T08:47:03;9;;;9;;
82398;SDS011;72035;52.482;-1.914;2023-08-12T08:49:33;7;;;6;;
82398;SDS011;72035;52.482;-1.914;2023-08-12T08:52:04;8;;;6;;
82398;SDS011;72035;52.482;-1.914;2023-08-12T08:54:37;7;;;5;;
82398;SDS011;72035;52.482;-1.914;2023-08-12T08:57:08;7;;;4;;
82398;SDS011;72035;52.482;-1.914;2023-08-12T08:59:38;9;;;6;;
82398;SDS011;72035;52.482;-1.914;2023-08-12T09:02:12;8;;;5;;
82398;SDS011;72035;52.482;-1.914;2023-08-12T09:04:42;6;;;4;;
82398;SDS011;72035;52.482;-1.914;2023-08-12T09:07:11;4;;;4;;
82398;SDS011;72035;52.482;-1.914;2023-08-12T09:09:42;10;;;6;;
82398;SDS011;72035;52.482;-1.914;2023-08-12T09:12:13;8;;;5;;
82398;SDS011;72035;52.482;-1.914;2023-08-12T09:14:44;12;;;9;;
82398;SDS011;72035;52.482;-1.914;2023-08-12T09:17:15;3;;;2;;
82398;SDS011;72035;52.482;-1.914;2023-08-12T09:19:43;4;;;4;;
82398;SDS011;72035;52.482;-1.914;2023-08-12T09:22:12;5;;;5;;
82398;SDS011;72035;52.482;-1.914;2023-08-12T09:24:42;2;;;2;;
82398;SDS011;72035;52.482;-1.914;2023-08-12T09:27:16;5;;;3;;
82398;SDS011;72035;52.482;-1.914;2023-08-12T09:29:46;3;;;3;;
82398;SDS011;72035;52.482;-1.914;2023-08-12T09:32:18;4;;;4;;
82398;SDS011;72035;52.482;-1.914;2023-08-12T09:34:51;6;;;4;;
82398;SDS011;72035;52.482;-1.914;2023-08-12T09:37:20;5;;;4;;
82398;SDS011;72035;52.482;-1.914;2023-08-12T09:39:52;3;;;3;;
82398;SDS011;72035;52.482;-1.914;2023-08-12T09:42:25;6;;;4;;
82398;SDS011;72035;52.482;-1.914;2023-08-12T09:44:57;9;;;6;;
82398;SDS011;72035;52.482;-1.914;2023-08-12T09:47:28;8;;;6;;
82398;SDS011;72035;52.482;-1.914;2023-08-12T09:50:01;11;;;9;;
82398;SDS011;72035;52.482;-1.914;2023-08-12T09:52:29;6;;;5;;
82398;SDS011;72035;52.482;-1.914;2023-08-12T09:54:58;5;;;5;;
82398;SDS011;72035;52.482;-1.914;2023-08-12T09:57:28;7;;;5;;
82398;SDS011;72035;52.482;-1.914;2023-08-12T09:59:58;7;;;4;;
82398;SDS011;72035;52.482;-1.914;2023-08-12T10:02:30;6;;;6;;
82398;SDS011;72035;52.482;-1.914;2023-08-12T10:05:00;8;;;4;;
82398;SDS011;72035;52.482;-1.914;2023-08-12T10:07:30;11;;;9;;
82398;SDS011;72035;52.482;-1.914;2023-08-12T10:09:59;10;;;8;;
82398;SDS011;72035;52.482;-1.914;2023-08-12T10:12:28;5;;;4;;
82398;SDS011;72035;52.482;-1.914;2023-08-12T10:14:59;4;;;3;;
82398;SDS011;72035;52.482;-1.914;2023-08-12T10:17:30;6;;;5;;
82398;SDS011;72035;52.482;-1.914;2023-08-12T10:20:00;3;;;3;;
82398;SDS011;72035;52.482;-1.914;2023-08-12T10:22:29;9;;;6;;
82398;SDS011;72035;52.482;-1.914;2023-08-12T10:24:58;7;;;4;;
82398;SDS011;72035;52.482;-1.914;2023-08-12T10:27:30;7;;;4;;
82398;SDS011;72035;52.482;-1.914;2023-08-12T10:30:04;12;;;6;;
82398;SDS011;72035;52.482;-1.914;2023-08-12T10:32:34;6;;;6;;
82398;SDS011;72035;52.482;-1.914;2023-08-12T10:35:05;3;;;3;;
82398;SDS011;72035;52.482;-1.914;2023-08-12T10:37:36;4;;;3;;
82398;SDS011;72035;52.482;-1.914;2023-08-12T10:40:19;4;;;3;;
82398;SDS011;72035;52.482;-1.914;2023-08-12T10:42:48;3;;;2;;
82398;SDS011;72035;52.482;-1.914;2023-08-12T10:45:17;5;;;5;;
82398;SDS011;72035;52.482;-1.914;2023-08-12T10:47:47;8;;;5;;
82398;SDS011;72035;52.482;-1.914;2023-08-12T10:50:20;6;;;6;;
82398;SDS011;72035;52.482;-1.914;2023-08-12T10:52:50;6;;;6;;
82398;SDS011;72035;52.482;-1.914;2023-08-12T10:55:21;6;;;4;;
82398;SDS011;72035;52.482;-1.914;2023-08-12T10:57:53;5;;;4;;
82398;SDS011;72035;52.482;-1.914;2023-08-12T11:00:23;5;;;4;;
82398;SDS011;72035;52.482;-1.914;2023-08-12T11:02:53;5;;;4;;
82398;SDS011;72035;52.482;-1.914;2023-08-12T11:05:22;5;;;4;;
82398;SDS011;72035;52.482;-1.914;2023-08-12T11:07:56;4;;;3;;
82398;SDS011;72035;52.482;-1.914;2023-08-12T11:10:30;5;;;4;;
82398;SDS011;72035;52.482;-1.914;2023-08-12T11:13:01;7;;;4;;
82398;SDS011;72035;52.482;-1.914;2023-08-12T11:15:34;8;;;8;;
82398;SDS011;72035;52.482;-1.914;2023-08-12T11:18:05;8;;;8;;
82398;SDS011;72035;52.482;-1.914;2023-08-12T11:20:36;3;;;3;;
82398;SDS011;72035;52.482;-1.914;2023-08-12T11:23:08;6;;;5;;
82398;SDS011;72035;52.482;-1.914;2023-08-12T11:25:39;3;;;3;;
82398;SDS011;72035;52.482;-1.914;2023-08-12T11:28:08;3;;;3;;
82398;SDS011;72035;52.482;-1.914;2023-08-12T11:30:40;3;;;3;;
82398;SDS011;72035;52.482;-1.914;2023-08-12T11:33:08;1;;;1;;
82398;SDS011;72035;52.482;-1.914;2023-08-12T11:35:37;5;;;1;;
82398;SDS011;72035;52.482;-1.914;2023-08-12T11:38:06;3;;;3;;
82398;SDS011;72035;52.482;-1.914;2023-08-12T11:40:35;1;;;1;;
82398;SDS011;72035;52.482;-1.914;2023-08-12T11:43:06;1;;;1;;
82398;SDS011;72035;52.482;-1.914;2023-08-12T11:45:36;1;;;1;;
82398;SDS011;72035;52.482;-1.914;2023-08-12T11:48:07;0;;;0;;
82398;SDS011;72035;52.482;-1.914;2023-08-12T11:50:35;1;;;1;;
82398;SDS011;72035;52.482;-1.914;2023-08-12T11:53:04;0;;;0;;
82398;SDS011;72035;52.482;-1.914;2023-08-12T11:55:33;0;;;0;;
82398;SDS011;72035;52.482;-1.914;2023-08-12T11:58:03;1;;;1;;
82398;SDS011;72035;52.482;-1.914;2023-08-12T12:00:33;1;;;1;;
82398;SDS011;72035;52.482;-1.914;2023-08-12T12:03:01;2;;;2;;
82398;SDS011;72035;52.482;-1.914;2023-08-12T12:05:31;2;;;2;;
82398;SDS011;72035;52.482;-1.914;2023-08-12T12:08:02;2;;;2;;
82398;SDS011;72035;52.482;-1.914;2023-08-12T12:10:36;1;;;1;;
82398;SDS011;72035;52.482;-1.914;2023-08-12T12:13:06;3;;;2;;
82398;SDS011;72035;52.482;-1.914;2023-08-12T12:15:39;1;;;1;;
82398;SDS011;72035;52.482;-1.914;2023-08-12T12:18:14;3;;;3;;
82398;SDS011;72035;52.482;-1.914;2023-08-12T12:21:01;3;;;3;;
82398;SDS011;72035;52.482;-1.914;2023-08-12T12:23:33;3;;;3;;
82398;SDS011;72035;52.482;-1.914;2023-08-12T12:26:03;4;;;3;;
82398;SDS011;72035;52.482;-1.914;2023-08-12T12:28:32;2;;;2;;
82398;SDS011;72035;52.482;-1.914;2023-08-12T12:31:00;2;;;2;;
82398;SDS011;72035;52.482;-1.914;2023-08-12T12:33:30;2;;;2;;
82398;SDS011;72035;52.482;-1.914;2023-08-12T12:36:01;3;;;3;;
82398;SDS011;72035;52.482;-1.914;2023-08-12T12:38:31;7;;;4;;
82398;SDS011;72035;52.482;-1.914;2023-08-12T12:40:59;1;;;1;;
82398;SDS011;72035;52.482;-1.914;2023-08-12T12:43:28;0;;;0;;
82398;SDS011;72035;52.482;-1.914;2023-08-12T12:45:57;0;;;0;;
82398;SDS011;72035;52.482;-1.914;2023-08-12T12:48:27;1;;;1;;
82398;SDS011;72035;52.482;-1.914;2023-08-12T12:50:57;1;;;1;;
82398;SDS011;72035;52.482;-1.914;2023-08-12T12:53:26;1;;;1;;
82398;SDS011;72035;52.482;-1.914;2023-08-12T12:55:55;2;;;2;;
82398;SDS011;72035;52.482;-1.914;2023-08-12T12:58:25;2;;;2;;
82398;SDS011;72035;52.482;-1.914;2023-08-12T13:00:54;2;;;2;;
82398;SDS011;72035;52.482;-1.914;2023-08-12T13:03:26;3;;;1;;
82398;SDS011;72035;52.482;-1.914;2023-08-12T13:05:58;4;;;2;;
82398;SDS011;72035;52.482;-1.914;2023-08-12T13:08:32;2;;;2;;
82398;SDS011;72035;52.482;-1.914;2023-08-12T13:11:03;3;;;2;;
82398;SDS011;72035;52.482;-1.914;2023-08-12T13:13:33;2;;;2;;
82398;SDS011;72035;52.482;-1.914;2023-08-12T13:16:06;2;;;2;;
82398;SDS011;72035;52.482;-1.914;2023-08-12T13:18:34;3;;;3;;
82398;SDS011;72035;52.482;-1.914;2023-08-12T13:21:03;3;;;3;;
82398;SDS011;72035;52.482;-1.914;2023-08-12T13:23:32;3;;;3;;
82398;SDS011;72035;52.482;-1.914;2023-08-12T13:26:02;3;;;3;;
82398;SDS011;72035;52.482;-1.914;2023-08-12T13:28:33;4;;;4;;
82398;SDS011;72035;52.482;-1.914;2023-08-12T13:31:04;3;;;3;;
82398;SDS011;72035;52.482;-1.914;2023-08-12T13:33:33;6;;;3;;
82398;SDS011;72035;52.482;-1.914;2023-08-12T13:36:01;5;;;2;;
82398;SDS011;72035;52.482;-1.914;2023-08-12T13:38:31;2;;;2;;
82398;SDS011;72035;52.482;-1.914;2023-08-12T13:41:02;2;;;2;;
82398;SDS011;72035;52.482;-1.914;2023-08-12T13:43:34;3;;;3;;
82398;SDS011;72035;52.482;-1.914;2023-08-12T13:46:03;3;;;3;;
82398;SDS011;72035;52.482;-1.914;2023-08-12T13:48:33;3;;;3;;
82398;SDS011;72035;52.482;-1.914;2023-08-12T13:51:02;2;;;2;;
82398;SDS011;72035;52.482;-1.914;2023-08-12T13:53:32;5;;;2;;
82398;SDS011;72035;52.482;-1.914;2023-08-12T13:56:02;4;;;4;;
82398;SDS011;72035;52.482;-1.914;2023-08-12T13:58:33;5;;;4;;
82398;SDS011;72035;52.482;-1.914;2023-08-12T14:01:02;5;;;4;;
82398;SDS011;72035;52.482;-1.914;2023-08-12T14:03:33;3;;;3;;
82398;SDS011;72035;52.482;-1.914;2023-08-12T14:06:06;3;;;2;;
82398;SDS011;72035;52.482;-1.914;2023-08-12T14:08:35;5;;;2;;
82398;SDS011;72035;52.482;-1.914;2023-08-12T14:11:03;8;;;7;;
82398;SDS011;72035;52.482;-1.914;2023-08-12T14:13:32;9;;;7;;
82398;SDS011;72035;52.482;-1.914;2023-08-12T14:16:02;5;;;4;;
82398;SDS011;72035;52.482;-1.914;2023-08-12T14:18:33;2;;;2;;
82398;SDS011;72035;52.482;-1.914;2023-08-12T14:21:01;5;;;3;;
82398;SDS011;72035;52.482;-1.914;2023-08-12T14:23:30;5;;;3;;
82398;SDS011;72035;52.482;-1.914;2023-08-12T14:25:59;5;;;3;;
82398;SDS011;72035;52.482;-1.914;2023-08-12T14:28:30;4;;;3;;
82398;SDS011;72035;52.482;-1.914;2023-08-12T14:30:59;3;;;3;;
82398;SDS011;72035;52.482;-1.914;2023-08-12T14:33:29;6;;;3;;
82398;SDS011;72035;52.482;-1.914;2023-08-12T14:36:00;4;;;4;;
82398;SDS011;72035;52.482;-1.914;2023-08-12T14:38:31;4;;;4;;
82398;SDS011;72035;52.482;-1.914;2023-08-12T14:41:00;3;;;3;;
82398;SDS011;72035;52.482;-1.914;2023-08-12T14:43:31;3;;;2;;
82398;SDS011;72035;52.482;-1.914;2023-08-12T14:46:03;3;;;3;;
82398;SDS011;72035;52.482;-1.914;2023-08-12T14:48:36;4;;;4;;
82398;SDS011;72035;52.482;-1.914;2023-08-12T14:51:06;5;;;4;;
82398;SDS011;72035;52.482;-1.914;2023-08-12T14:53:36;3;;;3;;
82398;SDS011;72035;52.482;-1.914;2023-08-12T14:56:09;2;;;2;;
82398;SDS011;72035;52.482;-1.914;2023-08-12T14:58:38;4;;;2;;
82398;SDS011;72035;52.482;-1.914;2023-08-12T15:01:07;2;;;2;;
82398;SDS011;72035;52.482;-1.914;2023-08-12T15:03:36;2;;;2;;
82398;SDS011;72035;52.482;-1.914;2023-08-12T15:06:05;3;;;3;;
82398;SDS011;72035;52.482;-1.914;2023-08-12T15:08:36;3;;;3;;
82398;SDS011;72035;52.482;-1.914;2023-08-12T15:11:08;2;;;2;;
82398;SDS011;72035;52.482;-1.914;2023-08-12T15:13:37;2;;;2;;
82398;SDS011;72035;52.482;-1.914;2023-08-12T15:16:06;2;;;2;;
82398;SDS011;72035;52.482;-1.914;2023-08-12T15:18:35;3;;;3;;
82398;SDS011;72035;52.482;-1.914;2023-08-12T15:21:04;2;;;2;;
82398;SDS011;72035;52.482;-1.914;2023-08-12T15:23:35;2;;;2;;
82398;SDS011;72035;52.482;-1.914;2023-08-12T15:26:06;3;;;3;;
82398;SDS011;72035;52.482;-1.914;2023-08-12T15:28:35;3;;;3;;
82398;SDS011;72035;52.482;-1.914;2023-08-12T15:31:04;2;;;2;;
82398;SDS011;72035;52.482;-1.914;2023-08-12T15:33:33;2;;;2;;
82398;SDS011;72035;52.482;-1.914;2023-08-12T15:36:03;3;;;3;;
82398;SDS011;72035;52.482;-1.914;2023-08-12T15:38:35;1;;;1;;
82398;SDS011;72035;52.482;-1.914;2023-08-12T15:41:04;1;;;1;;
82398;SDS011;72035;52.482;-1.914;2023-08-12T15:43:41;2;;;2;;
82398;SDS011;72035;52.482;-1.914;2023-08-12T15:46:15;2;;;2;;
82398;SDS011;72035;52.482;-1.914;2023-08-12T15:48:44;1;;;1;;
82398;SDS011;72035;52.482;-1.914;2023-08-12T15:51:12;2;;;2;;
82398;SDS011;72035;52.482;-1.914;2023-08-12T15:53:41;4;;;3;;
82398;SDS011;72035;52.482;-1.914;2023-08-12T15:56:11;2;;;2;;
82398;SDS011;72035;52.482;-1.914;2023-08-12T15:58:41;2;;;2;;
82398;SDS011;72035;52.482;-1.914;2023-08-12T16:01:13;4;;;2;;
82398;SDS011;72035;52.482;-1.914;2023-08-12T16:03:42;2;;;2;;
82398;SDS011;72035;52.482;-1.914;2023-08-12T16:06:11;3;;;3;;
82398;SDS011;72035;52.482;-1.914;2023-08-12T16:08:40;2;;;2;;
82398;SDS011;72035;52.482;-1.914;2023-08-12T16:11:09;2;;;2;;